createdAt,value
2019-01-17T00:02:30.512Z,0.90
2019-01-17T00:05:17.616Z,0.80
2019-01-17T00:08:00.229Z,0.90
2019-01-17T00:10:52.966Z,0.80
2019-01-17T00:13:58.218Z,0.80
2019-01-17T00:16:43.605Z,0.90
2019-01-17T00:19:30.512Z,0.90
2019-01-17T00:22:15.218Z,0.90
2019-01-17T00:25:07.845Z,0.80
2019-01-17T00:27:53.431Z,0.90
2019-01-17T00:30:42.892Z,0.80
2019-01-17T00:33:23.154Z,0.80
2019-01-17T00:36:09.494Z,0.80
2019-01-17T00:38:59.829Z,0.80
2019-01-17T00:41:55.567Z,0.90
2019-01-17T00:44:48.351Z,0.80
2019-01-17T00:47:41.474Z,0.80
2019-01-17T00:50:19.652Z,0.70
2019-01-17T00:53:09.245Z,0.70
2019-01-17T00:55:56.205Z,0.80
2019-01-17T00:58:43.133Z,0.80
2019-01-17T01:01:17.831Z,0.80
2019-01-17T01:04:13.752Z,0.80
2019-01-17T01:07:00.747Z,0.80
2019-01-17T01:09:53.978Z,0.80
2019-01-17T01:12:49.919Z,0.80
2019-01-17T01:15:39.889Z,0.80
2019-01-17T01:18:18.661Z,0.80
2019-01-17T01:21:08.638Z,0.80
2019-01-17T01:23:57.702Z,0.90
2019-01-17T01:26:43.034Z,0.80
2019-01-17T01:29:42.657Z,0.80
2019-01-17T01:32:39.555Z,0.90
2019-01-17T01:35:18.510Z,0.90
2019-01-17T01:38:04.522Z,0.90
2019-01-17T01:40:43.145Z,0.90
2019-01-17T01:43:42.133Z,0.90
2019-01-17T01:46:32.054Z,0.90
2019-01-17T01:49:17.429Z,0.80
2019-01-17T01:51:49.926Z,0.90
2019-01-17T01:54:21.952Z,0.90
2019-01-17T01:56:46.533Z,1.00
2019-01-17T01:59:14.007Z,1.00
2019-01-17T02:01:41.405Z,1.00
2019-01-17T02:04:08.799Z,1.00
2019-01-17T02:06:37.206Z,1.00
2019-01-17T02:09:07.137Z,0.90
2019-01-17T02:11:34.533Z,0.90
2019-01-17T02:14:03.079Z,0.90
2019-01-17T02:16:30.478Z,0.90
2019-01-17T02:18:57.878Z,0.90
2019-01-17T02:21:25.458Z,0.90
2019-01-17T02:23:52.862Z,0.90
2019-01-17T02:26:20.261Z,0.90
2019-01-17T02:28:47.701Z,0.90
2019-01-17T02:31:15.085Z,0.90
2019-01-17T02:33:42.487Z,0.90
2019-01-17T02:36:09.938Z,0.90
2019-01-17T02:38:37.703Z,0.90
2019-01-17T02:41:05.294Z,0.90
2019-01-17T02:43:32.726Z,0.90
2019-01-17T02:46:00.145Z,0.90
2019-01-17T02:48:27.581Z,0.90
2019-01-17T02:50:55.006Z,0.90
2019-01-17T02:53:22.389Z,0.90
2019-01-17T02:55:49.787Z,0.90
2019-01-17T02:58:17.238Z,0.90
2019-01-17T03:00:44.629Z,0.80
2019-01-17T03:03:12.032Z,0.90
2019-01-17T03:05:39.489Z,0.90
2019-01-17T03:08:06.876Z,0.90
2019-01-17T03:10:34.288Z,0.90
2019-01-17T03:13:01.847Z,0.90
2019-01-17T03:15:29.246Z,1.00
2019-01-17T03:17:56.661Z,1.00
2019-01-17T03:20:24.107Z,0.90
2019-01-17T03:22:51.527Z,1.00
2019-01-17T03:25:19.022Z,0.90
2019-01-17T03:27:46.475Z,0.90
2019-01-17T03:30:16.555Z,0.90
2019-01-17T03:32:44.071Z,0.90
2019-01-17T03:35:12.089Z,0.80
2019-01-17T03:37:39.769Z,0.80
2019-01-17T03:40:09.896Z,0.70
2019-01-17T03:42:37.659Z,0.70
2019-01-17T03:45:06.365Z,0.70
2019-01-17T03:47:33.749Z,0.70
2019-01-17T03:50:01.176Z,0.70
2019-01-17T03:52:28.598Z,0.70
2019-01-17T03:54:56.021Z,0.70
2019-01-17T03:57:23.447Z,0.70
2019-01-17T03:59:50.830Z,0.70
2019-01-17T04:02:18.221Z,0.70
2019-01-17T04:04:45.679Z,0.70
2019-01-17T04:07:13.075Z,0.60
2019-01-17T04:09:40.462Z,0.60
2019-01-17T04:12:07.930Z,0.50
2019-01-17T04:14:35.316Z,0.50
2019-01-17T04:17:02.732Z,0.50
2019-01-17T04:19:30.190Z,0.50
2019-01-17T04:21:57.564Z,0.40
2019-01-17T04:24:24.946Z,0.40
2019-01-17T04:26:52.347Z,0.40
2019-01-17T04:29:19.741Z,0.30
2019-01-17T04:31:47.141Z,0.30
2019-01-17T04:34:14.757Z,0.30
2019-01-17T04:36:43.968Z,0.20
2019-01-17T04:39:11.533Z,0.20
2019-01-17T04:41:39.302Z,0.20
2019-01-17T04:44:06.693Z,0.10
2019-01-17T04:46:34.091Z,0.10
2019-01-17T04:49:01.596Z,0.00
2019-01-17T04:51:28.980Z,0.00
2019-01-17T04:53:56.386Z,0.00
2019-01-17T04:56:23.846Z,0.00
2019-01-17T04:58:51.272Z,-0.10
2019-01-17T05:01:18.669Z,0.00
2019-01-17T05:03:46.470Z,-0.10
2019-01-17T05:06:13.867Z,0.00
2019-01-17T05:08:41.266Z,0.00
2019-01-17T05:11:08.750Z,0.00
2019-01-17T05:13:36.138Z,0.00
2019-01-17T05:16:03.548Z,0.00
2019-01-17T05:18:30.997Z,-0.10
2019-01-17T05:20:58.397Z,-0.10
2019-01-17T05:23:25.794Z,0.10
2019-01-17T05:25:53.241Z,0.10
2019-01-17T05:28:20.648Z,0.10
2019-01-17T05:30:48.044Z,0.00
2019-01-17T05:33:15.909Z,0.00
2019-01-17T05:35:43.365Z,0.00
2019-01-17T05:38:10.942Z,-0.10
2019-01-17T05:40:38.917Z,-0.10
2019-01-17T05:43:06.336Z,-0.20
2019-01-17T05:45:34.830Z,-0.20
2019-01-17T05:48:02.413Z,-0.20
2019-01-17T05:50:29.813Z,-0.30
2019-01-17T05:52:57.213Z,-0.30
2019-01-17T05:55:24.806Z,-0.40
2019-01-17T05:57:52.211Z,-0.40
2019-01-17T06:00:20.474Z,-0.40
2019-01-17T06:02:49.749Z,-0.40
2019-01-17T06:05:18.266Z,-0.50
2019-01-17T06:07:45.645Z,-0.50
2019-01-17T06:10:13.280Z,-0.60
2019-01-17T06:12:40.685Z,-0.60
2019-01-17T06:15:08.632Z,-0.60
2019-01-17T06:17:36.090Z,-0.60
2019-01-17T06:20:04.891Z,-0.60
2019-01-17T06:22:32.290Z,-0.70
2019-01-17T06:24:59.752Z,-0.70
2019-01-17T06:27:27.160Z,-0.70
2019-01-17T06:29:54.637Z,-0.70
2019-01-17T06:32:22.269Z,-0.80
2019-01-17T06:34:49.669Z,-0.80
2019-01-17T06:37:17.068Z,-0.90
2019-01-17T06:39:44.502Z,-0.90
2019-01-17T06:42:12.340Z,-0.90
2019-01-17T06:44:39.736Z,-1.00
2019-01-17T06:47:07.443Z,-1.00
2019-01-17T06:49:34.843Z,-1.10
2019-01-17T06:52:02.267Z,-1.10
2019-01-17T06:54:29.834Z,-1.20
2019-01-17T06:56:57.237Z,-1.20
2019-01-17T06:59:24.637Z,-1.20
2019-01-17T07:01:52.127Z,-1.20
2019-01-17T07:04:19.517Z,-1.30
2019-01-17T07:06:46.917Z,-1.30
2019-01-17T07:09:14.363Z,-1.30
2019-01-17T07:11:41.752Z,-1.30
2019-01-17T07:14:09.150Z,-1.30
2019-01-17T07:16:36.605Z,-1.20
2019-01-17T07:19:03.997Z,-1.10
2019-01-17T07:21:31.389Z,-1.00
2019-01-17T07:23:58.830Z,-0.90
2019-01-17T07:26:26.264Z,-0.90
2019-01-17T07:28:53.661Z,-0.80
2019-01-17T07:31:21.120Z,-0.80
2019-01-17T07:33:48.525Z,-0.70
2019-01-17T07:36:15.955Z,-0.70
2019-01-17T07:38:43.418Z,-0.60
2019-01-17T07:41:11.037Z,-0.60
2019-01-17T07:43:38.445Z,-0.50
2019-01-17T07:46:06.026Z,-0.40
2019-01-17T07:48:33.434Z,-0.40
2019-01-17T07:51:00.834Z,-0.20
2019-01-17T07:53:28.417Z,-0.10
2019-01-17T07:55:55.836Z,-0.10
2019-01-17T07:58:23.225Z,-0.10
2019-01-17T08:00:50.802Z,0.00
2019-01-17T08:03:18.205Z,0.00
2019-01-17T08:05:45.611Z,0.10
2019-01-17T08:08:13.074Z,0.10
2019-01-17T08:10:40.478Z,0.20
2019-01-17T08:13:07.879Z,0.30
2019-01-17T08:15:35.354Z,0.30
2019-01-17T08:18:03.054Z,0.30
2019-01-17T08:20:30.445Z,0.40
2019-01-17T08:22:59.284Z,0.50
2019-01-17T08:25:26.781Z,0.50
2019-01-17T08:27:56.128Z,0.60
2019-01-17T08:30:25.770Z,0.60
2019-01-17T08:32:53.181Z,0.70
2019-01-17T08:35:20.786Z,0.70
2019-01-17T08:37:48.209Z,0.80
2019-01-17T08:40:26.925Z,0.70
2019-01-17T08:42:55.034Z,0.80
2019-01-17T08:45:22.526Z,0.80
2019-01-17T08:47:49.942Z,0.90
2019-01-17T08:50:17.457Z,0.90
2019-01-17T08:52:44.842Z,0.90
2019-01-17T08:55:12.234Z,0.90
2019-01-17T08:57:40.041Z,0.90
2019-01-17T09:00:11.011Z,1.00
2019-01-17T09:02:38.400Z,1.00
2019-01-17T09:05:07.733Z,1.10
2019-01-17T09:07:35.125Z,1.10
2019-01-17T09:10:03.248Z,1.20
2019-01-17T09:12:30.706Z,1.20
2019-01-17T09:14:58.112Z,1.30
2019-01-17T09:17:25.509Z,1.30
2019-01-17T09:19:52.952Z,1.30
2019-01-17T09:22:20.350Z,1.40
2019-01-17T09:24:47.757Z,1.40
2019-01-17T09:27:15.419Z,1.50
2019-01-17T09:29:42.821Z,1.60
2019-01-17T09:32:10.218Z,1.60
2019-01-17T09:34:37.805Z,1.70
2019-01-17T09:37:05.203Z,1.70
2019-01-17T09:39:32.757Z,1.80
2019-01-17T09:42:00.673Z,1.80
2019-01-17T09:44:28.162Z,1.90
2019-01-17T09:46:55.658Z,2.00
2019-01-17T09:49:23.190Z,2.10
2019-01-17T09:51:50.595Z,2.20
2019-01-17T09:54:18.005Z,2.20
2019-01-17T09:56:45.741Z,2.30
2019-01-17T09:59:13.133Z,2.40
2019-01-17T10:01:40.549Z,2.50
2019-01-17T10:04:08.005Z,2.50
2019-01-17T10:06:35.503Z,2.70
2019-01-17T10:09:06.081Z,2.70
2019-01-17T10:11:33.635Z,2.90
2019-01-17T10:14:01.023Z,2.90
2019-01-17T10:17:19.318Z,3.10
2019-01-17T10:20:20.394Z,3.10
2019-01-17T10:23:16.552Z,3.20
2019-01-17T10:26:09.882Z,3.30
2019-01-17T10:29:24.649Z,3.30
2019-01-17T10:32:21.509Z,3.30
2019-01-17T10:35:23.530Z,3.40
2019-01-17T10:38:21.357Z,3.50
2019-01-17T10:41:00.473Z,3.60
2019-01-17T10:43:52.866Z,3.70
2019-01-17T10:46:52.739Z,3.70
2019-01-17T10:50:07.093Z,3.80
2019-01-17T10:52:52.061Z,3.90
2019-01-17T10:55:52.965Z,4.00
2019-01-17T10:58:35.940Z,4.00
2019-01-17T11:02:06.309Z,4.10
2019-01-17T11:05:01.743Z,4.20
2019-01-17T11:08:32.042Z,4.20
2019-01-17T11:11:41.064Z,4.30
2019-01-17T11:14:23.925Z,4.30
2019-01-17T11:17:54.750Z,4.40
2019-01-17T11:20:40.087Z,4.40
2019-01-17T11:23:29.786Z,4.60
2019-01-17T11:27:06.637Z,4.60
2019-01-17T11:30:10.733Z,4.60
2019-01-17T11:33:31.987Z,4.70
2019-01-17T11:36:33.110Z,4.80
2019-01-17T11:39:28.525Z,4.80
2019-01-17T11:42:22.566Z,4.80
2019-01-17T11:45:21.794Z,4.80
2019-01-17T11:48:28.811Z,4.80
2019-01-17T11:51:36.749Z,4.90
2019-01-17T11:54:40.723Z,4.90
2019-01-17T11:57:38.577Z,4.90
2019-01-17T12:00:31.696Z,4.80
2019-01-17T12:03:24.549Z,4.70
2019-01-17T12:05:52.030Z,4.90
2019-01-17T12:08:19.426Z,4.90
2019-01-17T12:10:46.826Z,4.90
2019-01-17T12:13:17.425Z,5.00
2019-01-17T12:15:43.474Z,5.20
2019-01-17T12:18:10.869Z,5.40
2019-01-17T12:20:38.430Z,5.50
2019-01-17T12:23:05.823Z,5.60
2019-01-17T12:25:33.204Z,5.70
2019-01-17T12:28:00.674Z,5.80
2019-01-17T12:30:28.068Z,5.90
2019-01-17T12:32:55.469Z,5.90
2019-01-17T12:35:22.912Z,5.90
2019-01-17T12:37:50.294Z,6.00
2019-01-17T12:40:17.693Z,6.00
2019-01-17T12:42:45.389Z,6.00
2019-01-17T12:45:12.773Z,6.10
2019-01-17T12:47:40.157Z,6.10
2019-01-17T12:50:12.357Z,6.10
2019-01-17T12:52:39.749Z,6.20
2019-01-17T12:55:07.301Z,6.10
2019-01-17T12:57:34.757Z,6.20
2019-01-17T13:00:07.663Z,6.20
2019-01-17T13:02:33.269Z,6.20
2019-01-17T13:05:01.093Z,6.20
2019-01-17T13:07:28.626Z,6.20
2019-01-17T13:09:56.019Z,6.20
2019-01-17T13:12:23.631Z,6.20
2019-01-17T13:14:51.064Z,6.20
2019-01-17T13:17:18.413Z,6.20
2019-01-17T13:19:45.864Z,6.10
2019-01-17T13:22:13.245Z,6.10
2019-01-17T13:24:40.632Z,6.10
2019-01-17T13:27:08.296Z,6.00
2019-01-17T13:29:35.691Z,6.00
2019-01-17T13:32:03.194Z,6.00
2019-01-17T13:34:30.620Z,6.00
2019-01-17T13:36:58.011Z,6.00
2019-01-17T13:39:25.412Z,6.00
2019-01-17T13:41:52.883Z,6.00
2019-01-17T13:44:20.277Z,6.00
2019-01-17T13:46:47.669Z,5.80
2019-01-17T13:49:15.357Z,5.50
2019-01-17T13:51:42.746Z,5.30
2019-01-17T13:54:10.144Z,5.10
2019-01-17T13:56:37.809Z,5.00
2019-01-17T13:59:05.205Z,5.00
2019-01-17T14:01:32.770Z,4.90
2019-01-17T14:04:00.938Z,4.80
2019-01-17T14:06:28.325Z,4.70
2019-01-17T14:08:55.722Z,4.80
2019-01-17T14:11:23.437Z,4.70
2019-01-17T14:13:50.832Z,4.60
2019-01-17T14:16:18.225Z,4.60
2019-01-17T14:18:45.920Z,4.50
2019-01-17T14:21:13.314Z,4.40
2019-01-17T14:23:40.706Z,4.30
2019-01-17T14:26:08.307Z,4.30
2019-01-17T14:28:35.696Z,4.20
2019-01-17T14:31:03.081Z,4.20
2019-01-17T14:33:30.533Z,4.10
2019-01-17T14:35:57.939Z,4.10
2019-01-17T14:38:25.333Z,4.10
2019-01-17T14:40:52.778Z,4.00
2019-01-17T14:43:20.173Z,3.80
2019-01-17T14:45:47.581Z,3.80
2019-01-17T14:48:15.167Z,3.70
2019-01-17T14:50:42.557Z,3.70
2019-01-17T14:53:09.946Z,3.60
2019-01-17T14:55:37.530Z,3.60
2019-01-17T14:58:04.922Z,3.50
2019-01-17T15:00:33.109Z,3.30
2019-01-17T15:03:00.750Z,3.20
2019-01-17T15:05:28.650Z,3.10
2019-01-17T15:07:56.032Z,3.10
2019-01-17T15:10:32.419Z,3.10
2019-01-17T15:12:59.804Z,3.00
2019-01-17T15:15:27.226Z,2.90
2019-01-17T15:17:54.661Z,2.90
2019-01-17T15:20:22.037Z,2.80
2019-01-17T15:22:50.496Z,2.80
2019-01-17T15:25:17.931Z,2.70
2019-01-17T15:27:45.349Z,2.60
2019-01-17T15:30:16.049Z,2.60
2019-01-17T15:32:43.605Z,2.50
2019-01-17T15:35:11.010Z,2.40
2019-01-17T15:37:38.397Z,2.30
2019-01-17T15:40:09.157Z,2.30
2019-01-17T15:42:36.551Z,2.20
2019-01-17T15:45:04.744Z,2.20
2019-01-17T15:47:32.183Z,2.10
2019-01-17T15:49:59.582Z,2.00
2019-01-17T15:52:26.990Z,2.00
2019-01-17T15:54:54.400Z,1.90
2019-01-17T15:57:23.597Z,1.80
2019-01-17T15:59:51.000Z,1.80
2019-01-17T16:02:18.683Z,1.70
2019-01-17T16:04:46.278Z,1.70
2019-01-17T16:07:13.691Z,1.60
2019-01-17T16:09:41.274Z,1.60
2019-01-17T16:12:08.669Z,1.60
2019-01-17T16:14:36.089Z,1.60
2019-01-17T16:17:03.530Z,1.60
2019-01-17T16:19:30.932Z,1.50
2019-01-17T16:21:59.431Z,1.50
2019-01-17T16:24:26.899Z,1.60
2019-01-17T16:26:54.284Z,1.60
2019-01-17T16:29:21.683Z,1.60
2019-01-17T16:31:49.137Z,1.60
2019-01-17T16:34:16.570Z,1.60
2019-01-17T16:36:43.968Z,1.60
2019-01-17T16:39:11.752Z,1.60
2019-01-17T16:41:39.150Z,1.70
2019-01-17T16:44:06.543Z,1.80
2019-01-17T16:46:34.130Z,1.80
2019-01-17T16:49:01.530Z,1.70
2019-01-17T16:51:28.920Z,1.70
2019-01-17T16:53:56.363Z,1.70
2019-01-17T16:56:23.760Z,1.80
2019-01-17T16:58:51.163Z,1.70
2019-01-17T17:01:18.623Z,1.80
2019-01-17T17:03:46.376Z,1.80
2019-01-17T17:06:14.066Z,1.80
2019-01-17T17:08:41.531Z,1.80
2019-01-17T17:11:08.947Z,1.80
2019-01-17T17:13:36.348Z,1.80
2019-01-17T17:16:03.798Z,1.90
2019-01-17T17:18:31.187Z,1.90
2019-01-17T17:20:58.589Z,1.90
2019-01-17T17:23:26.371Z,1.90
2019-01-17T17:25:53.776Z,1.90
2019-01-17T17:28:21.169Z,2.00
2019-01-17T17:30:48.768Z,1.90
2019-01-17T17:33:16.154Z,2.00
2019-01-17T17:35:43.573Z,2.00
2019-01-17T17:38:11.248Z,2.00
2019-01-17T17:40:38.655Z,2.10
2019-01-17T17:43:06.050Z,2.10
2019-01-17T17:45:33.492Z,2.10
2019-01-17T17:48:01.828Z,2.10
2019-01-17T17:50:29.225Z,2.10
2019-01-17T17:52:56.665Z,2.20
2019-01-17T17:55:24.065Z,2.20
2019-01-17T17:57:51.473Z,2.30
2019-01-17T18:00:27.649Z,2.30
2019-01-17T18:02:55.308Z,2.30
2019-01-17T18:05:22.751Z,2.30
2019-01-17T18:07:50.351Z,2.30
2019-01-17T18:10:17.747Z,2.30
2019-01-17T18:12:45.151Z,2.40
2019-01-17T18:15:13.568Z,2.30
2019-01-17T18:17:40.893Z,2.30
2019-01-17T18:20:09.593Z,2.30
2019-01-17T18:22:37.023Z,2.30
2019-01-17T18:25:04.857Z,2.30
2019-01-17T18:27:32.267Z,2.40
2019-01-17T18:29:59.842Z,2.40
2019-01-17T18:32:27.257Z,2.50
2019-01-17T18:34:54.646Z,2.60
2019-01-17T18:37:22.104Z,2.60
2019-01-17T18:39:49.509Z,2.60
2019-01-17T18:42:16.900Z,2.60
2019-01-17T18:44:44.378Z,2.60
2019-01-17T18:47:11.799Z,2.60
2019-01-17T18:49:39.201Z,2.50
2019-01-17T18:52:06.631Z,2.50
2019-01-17T18:54:34.023Z,2.60
2019-01-17T18:57:01.421Z,2.50
2019-01-17T18:59:28.968Z,2.50
2019-01-17T19:01:56.370Z,2.50
2019-01-17T19:04:23.904Z,2.50
2019-01-17T19:06:51.533Z,2.50
2019-01-17T19:09:18.946Z,2.50
2019-01-17T19:11:46.349Z,2.50
2019-01-17T19:14:13.790Z,2.50
2019-01-17T19:16:41.193Z,2.50
2019-01-17T19:19:08.593Z,2.60
2019-01-17T19:21:36.028Z,2.50
2019-01-17T19:24:03.434Z,2.50
2019-01-17T19:26:30.823Z,2.60
2019-01-17T19:28:58.242Z,2.60
2019-01-17T19:31:25.637Z,2.60
2019-01-17T19:33:53.021Z,2.60
2019-01-17T19:36:20.586Z,2.60
2019-01-17T19:38:48.010Z,2.60
2019-01-17T19:41:15.396Z,2.70
2019-01-17T19:43:43.285Z,2.70
2019-01-17T19:46:10.684Z,2.70
2019-01-17T19:48:38.089Z,2.70
2019-01-17T19:51:05.592Z,2.80
2019-01-17T19:53:32.962Z,2.70
2019-01-17T19:56:00.364Z,2.70
2019-01-17T19:58:29.015Z,2.70
2019-01-17T20:00:56.589Z,2.80
2019-01-17T20:03:24.333Z,2.70
2019-01-17T20:05:52.061Z,2.70
2019-01-17T20:08:19.465Z,2.70
2019-01-17T20:10:46.852Z,2.70
2019-01-17T20:13:14.578Z,2.80
2019-01-17T20:15:42.059Z,2.80
2019-01-17T20:18:09.523Z,2.80
2019-01-17T20:20:36.974Z,2.80
2019-01-17T20:23:04.676Z,2.80
2019-01-17T20:25:32.283Z,2.80
2019-01-17T20:27:59.706Z,2.70
2019-01-17T20:30:29.687Z,2.70
2019-01-17T20:32:58.899Z,2.80
2019-01-17T20:35:26.650Z,2.80
2019-01-17T20:37:54.045Z,2.90
2019-01-17T20:40:22.424Z,2.90
2019-01-17T20:42:49.859Z,2.90
2019-01-17T20:45:17.349Z,2.80
2019-01-17T20:47:44.950Z,2.80
2019-01-17T20:50:17.984Z,2.80
2019-01-17T20:52:45.374Z,2.90
2019-01-17T20:55:13.077Z,2.90
2019-01-17T20:57:41.303Z,2.90
2019-01-17T21:00:29.941Z,3.00
2019-01-17T21:02:57.678Z,3.00
2019-01-17T21:05:25.378Z,3.10
2019-01-17T21:07:53.660Z,3.10
2019-01-17T21:10:21.197Z,3.00
2019-01-17T21:12:48.599Z,3.10
2019-01-17T21:15:15.978Z,3.00
2019-01-17T21:17:43.596Z,3.00
2019-01-17T21:20:11.281Z,3.00
2019-01-17T21:22:38.585Z,3.00
2019-01-17T21:25:08.915Z,3.00
2019-01-17T21:27:36.325Z,3.00
2019-01-17T21:30:06.847Z,3.00
2019-01-17T21:32:34.503Z,3.00
2019-01-17T21:35:01.893Z,3.00
2019-01-17T21:37:29.285Z,3.10
2019-01-17T21:39:56.767Z,3.10
2019-01-17T21:42:24.171Z,3.00
2019-01-17T21:44:51.572Z,3.00
2019-01-17T21:47:19.026Z,3.10
2019-01-17T21:49:46.417Z,3.00
2019-01-17T21:52:13.813Z,3.00
2019-01-17T21:54:41.463Z,3.00
2019-01-17T21:57:08.862Z,3.10
2019-01-17T21:59:36.257Z,3.10
2019-01-17T22:02:03.685Z,3.10
2019-01-17T22:04:31.427Z,3.10
2019-01-17T22:06:59.131Z,3.20
2019-01-17T22:09:26.565Z,3.10
2019-01-17T22:11:53.959Z,3.20
2019-01-17T22:14:21.367Z,3.20
2019-01-17T22:16:48.819Z,3.00
2019-01-17T22:19:16.222Z,3.10
2019-01-17T22:21:43.617Z,3.10
2019-01-17T22:24:11.052Z,3.10
2019-01-17T22:26:38.459Z,3.10
2019-01-17T22:29:05.848Z,3.00
2019-01-17T22:31:33.493Z,3.00
2019-01-17T22:34:02.727Z,3.00
2019-01-17T22:36:30.079Z,2.90
2019-01-17T22:38:57.519Z,2.90
2019-01-17T22:41:25.023Z,2.90
2019-01-17T22:43:52.626Z,2.90
2019-01-17T22:46:20.215Z,2.90
2019-01-17T22:48:47.615Z,3.00
2019-01-17T22:51:15.007Z,2.90
2019-01-17T22:53:42.470Z,3.00
2019-01-17T22:56:09.861Z,3.00
2019-01-17T22:58:37.268Z,3.00
2019-01-17T23:01:25.593Z,2.90
2019-01-17T23:03:54.355Z,2.90
2019-01-17T23:06:21.982Z,3.00
2019-01-17T23:08:49.387Z,2.90
2019-01-17T23:11:16.787Z,2.90
2019-01-17T23:13:44.219Z,2.80
2019-01-17T23:16:11.591Z,2.70
2019-01-17T23:18:38.985Z,2.70
2019-01-17T23:21:06.419Z,2.60
2019-01-17T23:23:33.829Z,2.70
2019-01-17T23:26:01.364Z,2.70
2019-01-17T23:28:29.075Z,2.70
2019-01-17T23:30:56.461Z,2.70
2019-01-17T23:33:23.855Z,2.70
2019-01-17T23:35:51.355Z,2.70
2019-01-17T23:38:18.757Z,2.70
2019-01-17T23:40:46.151Z,2.70
2019-01-17T23:43:13.950Z,2.70
2019-01-17T23:45:41.348Z,2.80
2019-01-17T23:48:08.743Z,2.80
2019-01-17T23:50:36.145Z,2.90
2019-01-17T23:53:04.386Z,2.80
2019-01-17T23:55:31.782Z,2.70
2019-01-17T23:57:59.439Z,2.60
